Terminal Aerodrome Forecast
Issued by NWS

Current Version | Previous Version | Text Only | Print | Product List | Glossary On
Versions: 1 2 3 4 5 6 7 8 9 10 11 12 13 14 15 16 17 18
000
FTUS45 KBOI 172337
TAFBKE
TAF
KBKE 172337Z 1800/1824 11015G25KT P6SM OVC060
     FM181400 12011KT P6SM VCSH OVC025
     FM182000 12008KT 6SM -RA OVC020=

USA.gov is the U.S. government's official web portal to all federal, state and local government web resources and services.